createdAt,value
2023-05-17T00:02:17.551Z,99.90
2023-05-17T00:04:47.390Z,99.90
2023-05-17T00:07:16.091Z,99.90
2023-05-17T00:09:44.494Z,99.90
2023-05-17T00:12:12.986Z,99.90
2023-05-17T00:14:41.621Z,99.90
2023-05-17T00:17:10.019Z,99.90
2023-05-17T00:19:38.533Z,99.90
2023-05-17T00:22:09.015Z,99.90
2023-05-17T00:24:37.418Z,99.90
2023-05-17T00:27:06.774Z,99.90
2023-05-17T00:29:35.173Z,99.90
2023-05-17T00:32:03.619Z,99.90
2023-05-17T00:34:32.166Z,99.90
2023-05-17T00:37:00.493Z,99.90
2023-05-17T00:39:30.291Z,99.90
2023-05-17T00:41:59.646Z,99.90
2023-05-17T00:44:28.025Z,99.90
2023-05-17T00:46:56.996Z,99.90
2023-05-17T00:49:25.450Z,99.90
2023-05-17T00:51:55.050Z,99.90
2023-05-17T00:54:24.086Z,99.90
2023-05-17T00:56:54.301Z,99.90
2023-05-17T00:59:24.497Z,99.90
2023-05-17T01:01:53.555Z,99.90
2023-05-17T01:04:22.428Z,99.90
2023-05-17T01:06:51.447Z,99.90
2023-05-17T01:09:20.061Z,99.90
2023-05-17T01:12:04.296Z,99.90
2023-05-17T01:14:42.872Z,99.90
2023-05-17T01:17:18.792Z,99.90
2023-05-17T01:20:04.533Z,99.90
2023-05-17T01:22:44.271Z,99.90
2023-05-17T01:25:34.074Z,99.90
2023-05-17T01:28:05.650Z,99.90
2023-05-17T01:30:37.035Z,99.90
2023-05-17T01:33:07.078Z,99.90
2023-05-17T01:35:38.758Z,99.90
2023-05-17T01:38:07.403Z,99.90
2023-05-17T01:40:40.740Z,99.90
2023-05-17T01:43:16.457Z,99.90
2023-05-17T01:45:51.175Z,99.90
2023-05-17T01:48:28.139Z,99.90
2023-05-17T01:50:59.477Z,99.90
2023-05-17T01:53:34.282Z,99.90
2023-05-17T01:56:06.076Z,99.90
2023-05-17T01:58:45.414Z,99.90
2023-05-17T02:01:15.860Z,99.90
2023-05-17T02:03:44.683Z,99.90
2023-05-17T02:06:13.091Z,99.90
2023-05-17T02:08:42.984Z,99.90
2023-05-17T02:11:11.498Z,99.90
2023-05-17T02:13:41.220Z,99.90
2023-05-17T02:16:09.693Z,99.90
2023-05-17T02:18:38.408Z,99.90
2023-05-17T02:21:08.180Z,99.90
2023-05-17T02:23:38.070Z,99.90
2023-05-17T02:26:06.632Z,99.90
2023-05-17T02:28:35.759Z,99.90
2023-05-17T02:31:09.080Z,99.90
2023-05-17T02:33:37.817Z,99.90
2023-05-17T02:36:07.159Z,99.90
2023-05-17T02:38:35.722Z,99.90
2023-05-17T02:41:04.518Z,99.90
2023-05-17T02:43:33.160Z,99.90
2023-05-17T02:46:01.507Z,99.90
2023-05-17T02:48:32.281Z,99.90
2023-05-17T02:51:00.686Z,99.90
2023-05-17T02:53:32.182Z,99.90
2023-05-17T02:56:00.712Z,99.90
2023-05-17T02:58:29.112Z,99.90
2023-05-17T03:00:57.613Z,99.90
2023-05-17T03:03:26.491Z,99.90
2023-05-17T03:05:56.460Z,99.90
2023-05-17T03:08:24.868Z,99.90
2023-05-17T03:10:53.236Z,99.90
2023-05-17T03:13:21.685Z,99.90
2023-05-17T03:15:50.039Z,99.90
2023-05-17T03:18:19.589Z,99.90
2023-05-17T03:20:49.120Z,99.90
2023-05-17T03:23:19.416Z,99.90
2023-05-17T03:25:59.825Z,99.90
2023-05-17T03:28:30.497Z,99.90
2023-05-17T03:30:59.656Z,99.90
2023-05-17T03:33:32.163Z,99.90
2023-05-17T03:36:00.926Z,99.90
2023-05-17T03:38:31.487Z,99.90
2023-05-17T03:41:00.019Z,99.90
2023-05-17T03:43:28.825Z,99.90
2023-05-17T03:46:01.491Z,99.90
2023-05-17T03:48:32.075Z,99.90
2023-05-17T03:51:02.826Z,99.90
2023-05-17T03:53:32.620Z,99.90
2023-05-17T03:56:02.829Z,99.90
2023-05-17T03:58:31.530Z,99.90
2023-05-17T04:01:00.310Z,99.90
2023-05-17T04:03:28.814Z,99.90
2023-05-17T04:06:06.398Z,99.90
2023-05-17T04:08:38.083Z,99.90
2023-05-17T04:11:10.709Z,99.90
2023-05-17T04:13:39.409Z,99.90
2023-05-17T04:16:09.079Z,99.90
2023-05-17T04:18:40.124Z,99.90
2023-05-17T04:21:08.589Z,99.90
2023-05-17T04:23:39.254Z,99.90
2023-05-17T04:26:11.199Z,99.90
2023-05-17T04:28:41.327Z,99.90
2023-05-17T04:31:10.896Z,99.90
2023-05-17T04:33:39.789Z,99.90
2023-05-17T04:36:09.589Z,99.90
2023-05-17T04:38:41.413Z,99.90
2023-05-17T04:41:13.912Z,99.90
2023-05-17T04:43:44.144Z,99.90
2023-05-17T04:46:21.526Z,99.90
2023-05-17T04:48:50.086Z,99.90
2023-05-17T04:51:18.706Z,99.90
2023-05-17T04:53:48.654Z,99.90
2023-05-17T04:56:19.581Z,99.90
2023-05-17T04:58:48.043Z,99.90
2023-05-17T05:01:16.395Z,99.90
2023-05-17T05:03:45.025Z,99.90
2023-05-17T05:06:16.342Z,99.90
2023-05-17T05:08:45.726Z,99.90
2023-05-17T05:11:16.564Z,99.90
2023-05-17T05:13:45.199Z,99.90
2023-05-17T05:16:14.976Z,99.90
2023-05-17T05:18:45.204Z,99.90
2023-05-17T05:21:14.682Z,99.90
2023-05-17T05:23:43.197Z,99.90
2023-05-17T05:26:13.099Z,99.90
2023-05-17T05:28:43.054Z,99.90
2023-05-17T05:31:12.771Z,99.90
2023-05-17T05:33:47.700Z,99.90
2023-05-17T05:36:16.431Z,99.90
2023-05-17T05:38:44.864Z,99.90
2023-05-17T05:41:13.565Z,99.90
2023-05-17T05:43:44.119Z,99.90
2023-05-17T05:46:12.750Z,99.90
2023-05-17T05:48:42.642Z,99.90
2023-05-17T05:51:11.616Z,99.90
2023-05-17T05:53:43.108Z,99.90
2023-05-17T05:56:11.908Z,99.90
2023-05-17T05:58:40.270Z,99.90
2023-05-17T06:01:10.752Z,99.90
2023-05-17T06:03:39.163Z,99.90
2023-05-17T06:06:08.397Z,99.90
2023-05-17T06:08:36.870Z,99.90
2023-05-17T06:11:05.289Z,99.90
2023-05-17T06:13:33.687Z,99.90
2023-05-17T06:16:02.097Z,99.90
2023-05-17T06:18:31.972Z,99.90
2023-05-17T06:21:00.733Z,99.90
2023-05-17T06:23:29.157Z,99.90
2023-05-17T06:25:57.659Z,99.90
2023-05-17T06:28:26.474Z,99.90
2023-05-17T06:30:55.656Z,99.90
2023-05-17T06:33:24.957Z,99.90
2023-05-17T06:35:57.610Z,99.90
2023-05-17T06:38:26.781Z,99.90
2023-05-17T06:40:56.193Z,99.90
2023-05-17T06:43:24.822Z,99.90
2023-05-17T06:45:53.251Z,99.90
2023-05-17T06:48:21.841Z,99.90
2023-05-17T06:50:50.298Z,99.90
2023-05-17T06:53:20.863Z,99.90
2023-05-17T06:55:49.242Z,99.90
2023-05-17T06:58:17.586Z,99.90
2023-05-17T07:00:46.000Z,99.90
2023-05-17T07:03:14.444Z,99.90
2023-05-17T07:05:43.031Z,99.90
2023-05-17T07:08:11.335Z,99.90
2023-05-17T07:10:41.113Z,99.90
2023-05-17T07:13:09.522Z,99.90
2023-05-17T07:15:37.943Z,99.90
2023-05-17T07:18:06.658Z,99.90
2023-05-17T07:20:35.177Z,99.90
2023-05-17T07:23:03.590Z,99.90
2023-05-17T07:25:32.536Z,99.90
2023-05-17T07:28:02.314Z,99.90
2023-05-17T07:30:30.672Z,99.90
2023-05-17T07:32:59.372Z,99.90
2023-05-17T07:35:28.065Z,99.90
2023-05-17T07:37:56.474Z,99.90
2023-05-17T07:40:25.008Z,99.90
2023-05-17T07:42:54.554Z,99.90
2023-05-17T07:45:24.444Z,99.90
2023-05-17T07:47:55.609Z,99.90
2023-05-17T07:50:24.529Z,99.90
2023-05-17T07:52:53.363Z,99.90
2023-05-17T07:55:21.916Z,99.90
2023-05-17T07:57:50.602Z,99.90
2023-05-17T08:00:20.414Z,99.90
2023-05-17T08:02:50.514Z,99.90
2023-05-17T08:05:19.149Z,99.90
2023-05-17T08:07:47.545Z,99.90
2023-05-17T08:10:17.279Z,99.90
2023-05-17T08:12:46.230Z,99.70
2023-05-17T08:15:14.722Z,98.30
2023-05-17T08:17:43.149Z,98.50
2023-05-17T08:20:13.954Z,97.60
2023-05-17T08:22:42.687Z,98.10
2023-05-17T08:25:11.551Z,98.20
2023-05-17T08:27:40.896Z,98.40
2023-05-17T08:30:14.862Z,98.50
2023-05-17T08:32:46.773Z,98.20
2023-05-17T08:35:17.164Z,97.30
2023-05-17T08:37:45.574Z,97.20
2023-05-17T08:40:14.955Z,97.60
2023-05-17T08:42:43.929Z,96.90
2023-05-17T08:45:13.012Z,96.40
2023-05-17T08:47:43.299Z,96.30
2023-05-17T08:50:12.979Z,95.70
2023-05-17T08:52:46.058Z,95.10
2023-05-17T08:55:16.740Z,94.90
2023-05-17T08:57:46.007Z,94.90
2023-05-17T09:00:20.923Z,95.10
2023-05-17T09:02:49.415Z,95.30
2023-05-17T09:05:18.093Z,94.30
2023-05-17T09:07:50.314Z,94.20
2023-05-17T09:10:19.018Z,93.60
2023-05-17T09:12:49.358Z,93.60
2023-05-17T09:15:19.214Z,92.40
2023-05-17T09:17:53.445Z,92.40
2023-05-17T09:20:26.004Z,92.80
2023-05-17T09:22:56.837Z,93.20
2023-05-17T09:25:26.138Z,93.00
2023-05-17T09:27:54.796Z,92.50
2023-05-17T09:30:29.516Z,92.50
2023-05-17T09:32:59.370Z,93.50
2023-05-17T09:35:31.700Z,92.40
2023-05-17T09:38:08.074Z,93.00
2023-05-17T09:40:40.447Z,92.80
2023-05-17T09:43:09.422Z,92.50
2023-05-17T09:45:38.301Z,91.60
2023-05-17T09:48:14.601Z,91.60
2023-05-17T09:50:47.399Z,91.50
2023-05-17T09:53:27.717Z,92.20
2023-05-17T09:55:58.696Z,92.60
2023-05-17T09:58:28.994Z,91.70
2023-05-17T10:01:01.995Z,92.50
2023-05-17T10:03:33.456Z,92.90
2023-05-17T10:06:03.960Z,93.40
2023-05-17T10:08:34.762Z,93.10
2023-05-17T10:11:07.246Z,92.70
2023-05-17T10:13:41.945Z,93.00
2023-05-17T10:16:11.669Z,93.20
2023-05-17T10:18:41.846Z,92.60
2023-05-17T10:21:10.902Z,92.80
2023-05-17T10:23:42.280Z,92.30
2023-05-17T10:26:11.312Z,92.00
2023-05-17T10:28:40.597Z,92.70
2023-05-17T10:31:09.111Z,92.60
2023-05-17T10:33:38.505Z,92.80
2023-05-17T10:36:08.352Z,92.70
2023-05-17T10:38:42.423Z,92.60
2023-05-17T10:41:14.102Z,92.70
2023-05-17T10:43:44.232Z,93.30
2023-05-17T10:46:18.002Z,92.50
2023-05-17T10:48:49.082Z,92.80
2023-05-17T10:51:24.051Z,92.20
2023-05-17T10:54:11.670Z,91.90
2023-05-17T10:56:49.821Z,92.10
2023-05-17T10:59:23.314Z,91.80
2023-05-17T11:02:03.725Z,91.10
2023-05-17T11:04:36.539Z,89.80
2023-05-17T11:07:27.204Z,89.70
2023-05-17T11:09:57.326Z,88.00
2023-05-17T11:12:37.657Z,88.00
2023-05-17T11:15:10.804Z,88.60
2023-05-17T11:17:57.034Z,84.90
2023-05-17T11:20:33.999Z,83.60
2023-05-17T11:23:04.965Z,84.70
2023-05-17T11:25:36.055Z,83.80
2023-05-17T11:28:10.357Z,83.40
2023-05-17T11:30:51.145Z,83.40
2023-05-17T11:33:29.821Z,86.00
2023-05-17T11:36:07.507Z,88.00
2023-05-17T11:38:35.934Z,87.90
2023-05-17T11:43:52.372Z,89.10
2023-05-17T11:46:22.293Z,89.70
2023-05-17T11:48:52.539Z,90.20
2023-05-17T11:51:24.711Z,90.20
2023-05-17T11:53:56.159Z,90.20
2023-05-17T11:56:35.531Z,90.10
2023-05-17T11:59:12.946Z,91.00
2023-05-17T12:01:46.133Z,92.70
2023-05-17T12:04:14.797Z,93.90
2023-05-17T12:06:43.970Z,94.90
2023-05-17T12:09:13.553Z,95.10
2023-05-17T12:11:43.530Z,94.80
2023-05-17T12:14:16.804Z,95.50
2023-05-17T12:16:46.267Z,95.30
2023-05-17T12:19:22.292Z,94.90
2023-05-17T12:21:51.567Z,95.40
2023-05-17T12:24:20.260Z,95.20
2023-05-17T12:26:49.331Z,94.00
2023-05-17T12:29:23.080Z,93.80
2023-05-17T12:31:54.085Z,93.90
2023-05-17T12:34:23.371Z,94.40
2023-05-17T12:36:53.386Z,95.10
2023-05-17T12:39:24.361Z,95.70
2023-05-17T12:41:53.342Z,96.50
2023-05-17T12:44:23.283Z,97.30
2023-05-17T12:46:54.130Z,97.90
2023-05-17T12:49:23.379Z,97.40
2023-05-17T12:51:51.983Z,97.90
2023-05-17T12:54:30.107Z,98.00
2023-05-17T12:56:58.572Z,97.90
2023-05-17T12:59:29.392Z,98.20
2023-05-17T13:02:00.742Z,98.40
2023-05-17T13:04:33.513Z,98.80
2023-05-17T13:07:03.574Z,99.30
2023-05-17T13:09:32.975Z,99.90
2023-05-17T13:12:02.726Z,99.90
2023-05-17T13:14:46.170Z,99.90
2023-05-17T13:17:19.254Z,99.90
2023-05-17T13:19:47.970Z,99.90
2023-05-17T13:22:16.612Z,99.90
2023-05-17T13:24:45.693Z,99.90
2023-05-17T13:27:14.535Z,99.90
2023-05-17T13:29:45.187Z,99.90
2023-05-17T13:32:14.931Z,99.90
2023-05-17T13:34:43.322Z,99.90
2023-05-17T13:37:12.734Z,99.90
2023-05-17T13:39:41.906Z,99.90
2023-05-17T13:42:11.089Z,99.90
2023-05-17T13:44:39.823Z,99.90
2023-05-17T13:47:09.859Z,99.90
2023-05-17T13:49:38.305Z,99.90
2023-05-17T13:52:08.999Z,99.90
2023-05-17T13:54:38.115Z,99.90
2023-05-17T13:57:07.751Z,99.90
2023-05-17T13:59:36.452Z,99.90
2023-05-17T14:02:05.359Z,99.90
2023-05-17T14:04:35.195Z,99.90
2023-05-17T14:07:04.161Z,99.90
2023-05-17T14:09:34.656Z,99.90
2023-05-17T14:12:03.465Z,99.90
2023-05-17T14:14:32.059Z,99.90
2023-05-17T14:17:01.619Z,99.90
2023-05-17T14:19:30.178Z,99.90
2023-05-17T14:22:00.223Z,99.90
2023-05-17T14:24:28.622Z,99.90
2023-05-17T14:26:57.974Z,99.90
2023-05-17T14:29:26.489Z,99.90
2023-05-17T14:31:54.903Z,99.90
2023-05-17T14:34:23.491Z,99.90
2023-05-17T14:36:52.165Z,99.90
2023-05-17T14:39:21.943Z,99.90
2023-05-17T14:41:50.311Z,99.90
2023-05-17T14:44:18.704Z,99.90
2023-05-17T14:46:47.105Z,99.90
2023-05-17T14:49:15.642Z,99.90
2023-05-17T14:51:45.062Z,99.90
2023-05-17T14:54:13.932Z,99.90
2023-05-17T14:56:44.493Z,99.90
2023-05-17T14:59:12.913Z,99.90
2023-05-17T15:01:41.286Z,99.90
2023-05-17T15:04:10.412Z,99.90
2023-05-17T15:06:38.904Z,99.90
2023-05-17T15:09:13.274Z,99.90
2023-05-17T15:11:43.255Z,99.90
2023-05-17T15:14:11.732Z,99.90
2023-05-17T15:16:40.638Z,99.90
2023-05-17T15:19:09.921Z,99.90
2023-05-17T15:21:38.472Z,99.90
2023-05-17T15:24:08.088Z,99.90
2023-05-17T15:26:36.520Z,99.90
2023-05-17T15:29:06.277Z,99.90
2023-05-17T15:31:35.574Z,99.90
2023-05-17T15:34:04.987Z,99.90
2023-05-17T15:36:34.517Z,99.90
2023-05-17T15:39:02.917Z,99.90
2023-05-17T15:41:32.984Z,99.90
2023-05-17T15:44:01.904Z,98.70
2023-05-17T15:46:31.709Z,95.60
2023-05-17T15:49:00.120Z,94.90
2023-05-17T15:51:28.589Z,98.50
2023-05-17T15:53:57.695Z,99.90
2023-05-17T15:56:27.218Z,99.90
2023-05-17T15:58:55.644Z,99.90
2023-05-17T16:01:24.048Z,99.90
2023-05-17T16:03:53.829Z,99.90
2023-05-17T16:06:22.297Z,99.90
2023-05-17T16:08:51.022Z,99.90
2023-05-17T16:11:19.419Z,99.90
2023-05-17T16:13:47.814Z,99.90
2023-05-17T16:16:16.297Z,99.90
2023-05-17T16:18:44.921Z,99.90
2023-05-17T16:21:14.773Z,99.90
2023-05-17T16:23:43.578Z,99.90
2023-05-17T16:26:11.995Z,99.90
2023-05-17T16:28:40.722Z,99.90
2023-05-17T16:31:09.262Z,99.90
2023-05-17T16:33:38.358Z,99.90
2023-05-17T16:36:07.398Z,99.90
2023-05-17T16:38:37.553Z,99.90
2023-05-17T16:41:06.182Z,99.90
2023-05-17T16:43:34.999Z,99.90
2023-05-17T16:46:03.582Z,99.90
2023-05-17T16:48:31.939Z,99.90
2023-05-17T16:51:00.576Z,99.90
2023-05-17T16:53:29.237Z,99.90
2023-05-17T16:55:59.093Z,99.90
2023-05-17T16:58:27.435Z,99.90
2023-05-17T17:00:55.837Z,99.90
2023-05-17T17:03:24.284Z,99.90
2023-05-17T17:05:52.741Z,99.90
2023-05-17T17:08:21.088Z,99.90
2023-05-17T17:10:51.324Z,99.90
2023-05-17T17:13:21.014Z,99.90
2023-05-17T17:15:51.182Z,99.90
2023-05-17T17:18:19.766Z,99.90
2023-05-17T17:20:48.123Z,99.90
2023-05-17T17:23:16.503Z,99.90
2023-05-17T17:25:44.802Z,99.90
2023-05-17T17:28:13.623Z,99.90
2023-05-17T17:30:43.351Z,99.90
2023-05-17T17:33:11.767Z,99.90
2023-05-17T17:35:40.171Z,99.90
2023-05-17T17:38:08.715Z,99.90
2023-05-17T17:40:37.107Z,99.90
2023-05-17T17:43:05.451Z,99.90
2023-05-17T17:45:33.812Z,99.90
2023-05-17T17:48:03.528Z,99.90
2023-05-17T17:50:32.831Z,99.90
2023-05-17T17:53:01.701Z,99.90
2023-05-17T17:55:30.132Z,99.90
2023-05-17T17:57:58.461Z,99.90
2023-05-17T18:00:27.043Z,99.90
2023-05-17T18:02:56.313Z,99.90
2023-05-17T18:05:26.593Z,99.90
2023-05-17T18:07:54.958Z,99.90
2023-05-17T18:10:23.308Z,99.90
2023-05-17T18:12:51.915Z,99.90
2023-05-17T18:15:20.384Z,99.90
2023-05-17T18:17:51.501Z,99.90
2023-05-17T18:20:22.312Z,99.90
2023-05-17T18:22:52.144Z,99.90
2023-05-17T18:25:20.620Z,99.90
2023-05-17T18:27:49.861Z,99.90
2023-05-17T18:30:18.535Z,99.90
2023-05-17T18:32:46.951Z,99.90
2023-05-17T18:35:15.399Z,99.90
2023-05-17T18:37:43.763Z,99.90
2023-05-17T18:40:15.153Z,99.90
2023-05-17T18:42:43.637Z,99.90
2023-05-17T18:45:12.385Z,99.90
2023-05-17T18:47:40.939Z,99.90
2023-05-17T18:50:10.200Z,99.90
2023-05-17T18:52:39.184Z,99.90
2023-05-17T18:55:08.082Z,99.90
2023-05-17T18:57:37.942Z,99.90
2023-05-17T19:00:07.558Z,99.90
2023-05-17T19:02:35.950Z,99.90
2023-05-17T19:05:04.501Z,99.90
2023-05-17T19:07:32.974Z,99.90
2023-05-17T19:10:01.794Z,99.90
2023-05-17T19:12:30.174Z,99.90
2023-05-17T19:14:59.898Z,99.90
2023-05-17T19:17:28.328Z,99.90
2023-05-17T19:19:56.737Z,99.90
2023-05-17T19:22:25.166Z,99.90
2023-05-17T19:24:53.723Z,99.90
2023-05-17T19:27:22.121Z,99.90
2023-05-17T19:29:50.454Z,99.90
2023-05-17T19:32:20.718Z,99.90
2023-05-17T19:34:49.044Z,99.90
2023-05-17T19:37:17.401Z,99.90
2023-05-17T19:39:45.993Z,99.90
2023-05-17T19:42:14.361Z,99.90
2023-05-17T19:44:42.738Z,99.90
2023-05-17T19:47:11.124Z,99.90
2023-05-17T19:49:41.048Z,99.90
2023-05-17T19:52:09.478Z,99.90
2023-05-17T19:54:37.873Z,99.90
2023-05-17T19:57:06.857Z,99.90
2023-05-17T19:59:35.378Z,99.90
2023-05-17T20:02:03.772Z,99.90
2023-05-17T20:04:40.800Z,99.90
2023-05-17T20:07:10.878Z,99.90
2023-05-17T20:09:39.847Z,99.90
2023-05-17T20:12:09.348Z,99.90
2023-05-17T20:14:38.292Z,99.90
2023-05-17T20:17:07.230Z,99.90
2023-05-17T20:19:39.017Z,99.90
2023-05-17T20:22:07.908Z,99.90
2023-05-17T20:24:40.350Z,99.90
2023-05-17T20:27:09.687Z,99.90
2023-05-17T20:29:38.608Z,99.90
2023-05-17T20:32:07.808Z,99.90
2023-05-17T20:34:36.523Z,99.90
2023-05-17T20:37:05.068Z,99.90
2023-05-17T20:39:33.464Z,99.90
2023-05-17T20:42:03.253Z,99.90
2023-05-17T20:44:33.404Z,99.90
2023-05-17T20:47:01.934Z,99.90
2023-05-17T20:49:30.275Z,99.90
2023-05-17T20:52:02.282Z,99.90
2023-05-17T20:54:31.480Z,99.90
2023-05-17T20:57:00.473Z,99.90
2023-05-17T20:59:30.196Z,99.90
2023-05-17T21:01:58.653Z,99.90
2023-05-17T21:04:27.107Z,99.90
2023-05-17T21:06:58.212Z,99.90
2023-05-17T21:09:27.245Z,99.90
2023-05-17T21:11:55.723Z,99.90
2023-05-17T21:14:24.173Z,99.90
2023-05-17T21:16:55.645Z,99.90
2023-05-17T21:19:24.901Z,99.90
2023-05-17T21:21:53.288Z,99.90
2023-05-17T21:24:21.784Z,99.90
2023-05-17T21:26:50.164Z,99.90
2023-05-17T21:29:18.670Z,99.90
2023-05-17T21:31:47.081Z,99.90
2023-05-17T21:34:16.895Z,99.90
2023-05-17T21:36:45.311Z,99.90
2023-05-17T21:39:13.713Z,99.90
2023-05-17T21:41:42.050Z,99.90
2023-05-17T21:44:10.503Z,99.90
2023-05-17T21:46:38.919Z,99.90
2023-05-17T21:49:08.239Z,99.90
2023-05-17T21:51:37.964Z,99.90
2023-05-17T21:54:06.724Z,99.90
2023-05-17T21:56:35.093Z,99.90
2023-05-17T21:59:03.829Z,99.90
2023-05-17T22:01:32.336Z,99.90
2023-05-17T22:04:07.100Z,99.90
2023-05-17T22:06:37.140Z,99.90
2023-05-17T22:09:06.276Z,99.90
2023-05-17T22:11:38.414Z,99.90
2023-05-17T22:14:07.664Z,99.90
2023-05-17T22:16:36.946Z,99.90
2023-05-17T22:19:06.024Z,99.90
2023-05-17T22:21:34.492Z,99.90
2023-05-17T22:24:04.433Z,99.90
2023-05-17T22:26:32.899Z,99.90
2023-05-17T22:29:01.328Z,99.90
2023-05-17T22:31:31.219Z,99.90
2023-05-17T22:33:59.651Z,99.90
2023-05-17T22:36:28.229Z,99.90
2023-05-17T22:38:57.055Z,99.90
2023-05-17T22:41:27.895Z,99.90
2023-05-17T22:43:56.344Z,99.90
2023-05-17T22:46:27.887Z,99.90
2023-05-17T22:48:58.102Z,99.90
2023-05-17T22:51:30.142Z,99.90
2023-05-17T22:53:59.166Z,99.90
2023-05-17T22:56:28.883Z,99.90
2023-05-17T22:58:57.293Z,99.90
2023-05-17T23:01:26.045Z,99.90
2023-05-17T23:03:54.529Z,99.90
2023-05-17T23:06:24.462Z,99.90
2023-05-17T23:08:53.986Z,99.90
2023-05-17T23:11:22.307Z,99.90
2023-05-17T23:13:52.537Z,99.90
2023-05-17T23:16:25.998Z,99.90
2023-05-17T23:18:54.556Z,99.90
2023-05-17T23:21:22.875Z,99.90
2023-05-17T23:23:53.591Z,99.90
2023-05-17T23:26:22.181Z,99.90
2023-05-17T23:28:53.641Z,99.90
2023-05-17T23:31:22.840Z,99.90
2023-05-17T23:33:51.551Z,99.90
2023-05-17T23:36:21.765Z,99.90
2023-05-17T23:38:50.108Z,99.90
2023-05-17T23:41:19.840Z,99.90
2023-05-17T23:43:48.552Z,99.90
2023-05-17T23:46:19.788Z,99.90
2023-05-17T23:48:50.615Z,99.90
2023-05-17T23:51:20.505Z,99.90
2023-05-17T23:53:49.960Z,99.90
2023-05-17T23:56:18.658Z,99.90
2023-05-17T23:58:47.349Z,99.90
